LCLK/LCA METAR and TAF weather

Enter ICAO airport designator
Station Type Date Time Source
LCLK METAR 2020/07/02 19:00 UTC NOAA

LCLK 021900Z 24002KT CAVOK 28/19 Q1004 NOSIG


Station Type Date Time Source
LCLK Decoded METAR 2020/07/02 19:00 UTC NOAA

Larnaca Airport, Cyprus (LCLK) 34-53N 033-38E 2M
Jul 02, 2020 - 03:00 PM EDT / 2020.07.02 1900 UTC
Wind: from the WSW (240 degrees) at 2 MPH (2 KT):0
Visibility: greater than 7 mile(s):0
Temperature: 82 F (28 C)
Dew Point: 66 F (19 C)
Relative Humidity: 58%
Pressure (altimeter): 29.65 in. Hg (1004 hPa)
ob: LCLK 021900Z 24002KT CAVOK 28/19 Q1004 NOSIG
cycle: 19

Station Type Date Time Source
LCLK TAF 2020/07/02 18:30 UTC NOAA

TAF LCLK 021730Z 0218/0318 VRB03KT 9999 FEW020 PROB30
TEMPO 0300/0305 1500 VCFG BKN001
BECMG 0309/0311 16012KT
BECMG 0316/0318 22005KT

Example: see airport list